createdAt,value
2022-08-02T00:00:00.196Z,83.5
2022-08-02T00:05:00.166Z,82.9
2022-08-02T00:10:00.164Z,82.2
2022-08-02T00:15:00.183Z,83.2
2022-08-02T00:20:00.212Z,83.4
2022-08-02T00:25:00.166Z,82.8
2022-08-02T00:30:00.181Z,82.8
2022-08-02T00:35:00.159Z,82.8
2022-08-02T00:40:00.182Z,83.4
2022-08-02T00:45:00.173Z,82.7
2022-08-02T00:50:00.180Z,82.7
2022-08-02T00:55:00.181Z,83.3
2022-08-02T01:00:00.223Z,83.6
2022-08-02T01:05:00.172Z,83.6
2022-08-02T01:10:00.293Z,83.9
2022-08-02T01:15:00.192Z,83.9
2022-08-02T01:20:00.172Z,84.2
2022-08-02T01:25:00.174Z,85.1
2022-08-02T01:30:00.186Z,86.3
2022-08-02T01:35:00.176Z,86.3
2022-08-02T01:40:00.190Z,86.9
2022-08-02T01:45:00.168Z,86.9
2022-08-02T01:50:00.208Z,86.9
2022-08-02T01:55:00.163Z,86.9
2022-08-02T02:00:00.169Z,87.5
2022-08-02T02:05:00.435Z,87.5
2022-08-02T02:10:00.447Z,87.2
2022-08-02T02:15:00.195Z,87.5
2022-08-02T02:20:00.186Z,87.5
2022-08-02T02:25:00.158Z,87.8
2022-08-02T02:30:00.186Z,87.4
2022-08-02T02:35:00.172Z,87.8
2022-08-02T02:40:00.185Z,88
2022-08-02T02:45:00.163Z,88.3
2022-08-02T02:50:00.166Z,88.6
2022-08-02T02:55:00.175Z,88.6
2022-08-02T03:00:00.173Z,90.5
2022-08-02T03:05:00.161Z,90.8
2022-08-02T03:10:00.188Z,92.1
2022-08-02T03:15:00.168Z,92.1
2022-08-02T03:20:00.197Z,91.8
2022-08-02T03:25:00.167Z,91.2
2022-08-02T03:30:00.163Z,89.9
2022-08-02T03:35:00.156Z,89.9
2022-08-02T03:40:00.209Z,89.9
2022-08-02T03:45:03.752Z,89.2
2022-08-02T03:50:00.173Z,89.8
2022-08-02T03:55:00.164Z,89.8
2022-08-02T04:00:00.193Z,89.8
2022-08-02T04:05:00.162Z,91
2022-08-02T04:10:00.170Z,90.7
2022-08-02T04:15:00.169Z,90.7
2022-08-02T04:20:00.216Z,90.4
2022-08-02T04:25:00.169Z,90.4
2022-08-02T04:30:00.226Z,90.1
2022-08-02T04:35:19.251Z,90.7
2022-08-02T04:40:00.296Z,92.3
2022-08-02T04:45:00.333Z,92.3
2022-08-02T04:50:00.239Z,93
2022-08-02T04:55:00.174Z,93.7
2022-08-02T05:00:00.158Z,93.1
2022-08-02T05:05:00.172Z,93.2
2022-08-02T05:10:00.175Z,92.6
2022-08-02T05:15:00.163Z,92.6
2022-08-02T05:20:00.202Z,92
2022-08-02T05:25:00.167Z,92
2022-08-02T05:30:00.177Z,91.4
2022-08-02T05:35:00.168Z,91.1
2022-08-02T05:40:01.126Z,90.8
2022-08-02T05:45:00.171Z,90.2
2022-08-02T05:50:00.167Z,89.6
2022-08-02T05:55:00.172Z,89
2022-08-02T06:00:00.163Z,88.4
2022-08-02T06:05:00.198Z,88.1
2022-08-02T06:10:00.162Z,87.2
2022-08-02T06:15:00.533Z,86
2022-08-02T06:20:00.188Z,84.1
2022-08-02T06:25:00.160Z,84.8
2022-08-02T06:30:00.211Z,84.5
2022-08-02T06:35:00.229Z,81.9
2022-08-02T06:40:00.176Z,82.3
2022-08-02T06:45:00.171Z,81
2022-08-02T06:50:00.261Z,81.7
2022-08-02T06:55:00.308Z,81.1
2022-08-02T07:00:00.177Z,79.5
2022-08-02T07:05:00.185Z,79.3
2022-08-02T07:10:01.188Z,79
2022-08-02T07:15:00.190Z,78.1
2022-08-02T07:20:00.193Z,76.8
2022-08-02T07:25:00.208Z,75.6
2022-08-02T07:30:00.204Z,76
2022-08-02T07:35:00.170Z,75
2022-08-02T07:40:00.185Z,72.2
2022-08-02T07:45:00.175Z,72.5
2022-08-02T07:50:00.202Z,71
2022-08-02T07:55:00.168Z,68.7
2022-08-02T08:00:00.295Z,68.8
2022-08-02T08:05:00.176Z,67.8
2022-08-02T08:10:00.169Z,65.7
2022-08-02T08:15:00.195Z,64.7
2022-08-02T08:20:00.183Z,61.2
2022-08-02T08:25:00.181Z,59.9
2022-08-02T08:30:00.213Z,61.9
2022-08-02T08:35:00.164Z,61.9
2022-08-02T08:40:00.185Z,60.6
2022-08-02T08:45:00.169Z,60
2022-08-02T08:50:00.179Z,60.9
2022-08-02T08:55:00.176Z,62.6
2022-08-02T09:00:00.192Z,62.3
2022-08-02T09:05:00.175Z,60.7
2022-08-02T09:10:00.211Z,58.8
2022-08-02T09:15:00.178Z,58.2
2022-08-02T09:20:00.179Z,56.9
2022-08-02T09:25:00.168Z,56.3
2022-08-02T09:30:12.355Z,55
2022-08-02T09:35:00.169Z,55
2022-08-02T09:40:00.193Z,53.4
2022-08-02T09:45:00.177Z,53.8
2022-08-02T09:50:00.226Z,54.5
2022-08-02T09:55:00.173Z,51.2
2022-08-02T10:00:00.225Z,53.8
2022-08-02T10:05:00.193Z,54.5
2022-08-02T10:10:00.184Z,49.6
2022-08-02T10:15:00.177Z,50.9
2022-08-02T10:20:04.204Z,52
2022-08-02T10:25:00.171Z,49.7
2022-08-02T10:30:00.190Z,48.7
2022-08-02T10:35:02.686Z,49.4
2022-08-02T10:40:00.186Z,49.4
2022-08-02T10:45:00.168Z,46.5
2022-08-02T10:50:00.378Z,47.1
2022-08-02T10:55:00.164Z,47.5
2022-08-02T11:00:00.178Z,46.2
2022-08-02T11:05:00.181Z,44.3
2022-08-02T11:10:00.168Z,44.3
2022-08-02T11:15:00.177Z,46.2
2022-08-02T11:20:00.182Z,43
2022-08-02T11:25:00.190Z,42.3
2022-08-02T11:30:00.175Z,43
2022-08-02T11:35:00.181Z,42.3
2022-08-02T11:40:00.292Z,42.6
2022-08-02T11:45:00.180Z,44.3
2022-08-02T11:50:00.198Z,43.7
2022-08-02T11:55:00.177Z,40
2022-08-02T12:00:00.163Z,42.4
2022-08-02T12:05:00.188Z,41.1
2022-08-02T12:10:00.170Z,42.4
2022-08-02T12:15:00.180Z,39.8
2022-08-02T12:20:00.186Z,42.4
2022-08-02T12:25:00.174Z,40.5
2022-08-02T12:30:00.195Z,41.1
2022-08-02T12:35:00.184Z,40.2
2022-08-02T12:40:00.183Z,40.5
2022-08-02T12:45:02.733Z,39.8
2022-08-02T12:50:00.408Z,39.8
2022-08-02T12:55:00.169Z,39.2
2022-08-02T13:00:00.175Z,39.5
2022-08-02T13:05:00.167Z,38.5
2022-08-02T13:10:03.169Z,41.7
2022-08-02T13:15:00.180Z,42.3
2022-08-02T13:20:00.188Z,41.7
2022-08-02T13:25:00.178Z,39.4
2022-08-02T13:30:00.192Z,39.8
2022-08-02T13:35:00.175Z,39.1
2022-08-02T13:40:20.601Z,38.2
2022-08-02T13:45:00.188Z,40.1
2022-08-02T13:50:00.377Z,39.5
2022-08-02T13:55:00.174Z,39.8
2022-08-02T14:00:00.206Z,39.2
2022-08-02T14:05:00.185Z,38.9
2022-08-02T14:10:00.188Z,38.5
2022-08-02T14:15:00.177Z,37.2
2022-08-02T14:20:00.161Z,39.8
2022-08-02T14:25:08.882Z,39.8
2022-08-02T14:30:00.173Z,39.2
2022-08-02T14:35:00.178Z,37.2
2022-08-02T14:40:02.188Z,36.6
2022-08-02T14:45:00.188Z,37.2
2022-08-02T14:50:00.317Z,36.6
2022-08-02T14:55:00.253Z,34.4
2022-08-02T15:00:00.254Z,31.5
2022-08-02T15:05:00.217Z,32.1
2022-08-02T15:10:00.181Z,33.4
2022-08-02T15:15:00.281Z,33.4
2022-08-02T15:20:05.628Z,34.7
2022-08-02T15:25:00.188Z,33.1
2022-08-02T15:30:00.813Z,30.9
2022-08-02T15:35:00.206Z,31.5
2022-08-02T15:40:00.191Z,35
2022-08-02T15:45:00.195Z,35
2022-08-02T15:50:00.190Z,37.2
2022-08-02T15:55:06.789Z,37.9
2022-08-02T16:00:00.180Z,38.9
2022-08-02T16:05:00.188Z,39.2
2022-08-02T16:10:00.229Z,38.8
2022-08-02T16:15:00.250Z,41.1
2022-08-02T16:20:00.469Z,39.1
2022-08-02T16:25:00.221Z,40
2022-08-02T16:30:00.212Z,43
2022-08-02T16:35:08.985Z,42.3
2022-08-02T16:40:00.196Z,41
2022-08-02T16:45:00.200Z,40
2022-08-02T16:50:04.815Z,41.4
2022-08-02T16:55:00.168Z,34.7
2022-08-02T17:00:00.337Z,33.5
2022-08-02T17:05:00.166Z,30
2022-08-02T17:10:01.873Z,28.3
2022-08-02T17:15:00.860Z,30.2
2022-08-02T17:20:00.174Z,33.4
2022-08-02T17:25:00.171Z,35.3
2022-08-02T17:30:00.183Z,36.5
2022-08-02T17:35:03.960Z,38.8
2022-08-02T17:40:00.190Z,40.4
2022-08-02T17:45:07.038Z,41
2022-08-02T17:50:00.361Z,43.2
2022-08-02T17:55:00.165Z,44.2
2022-08-02T18:00:04.143Z,46.1
2022-08-02T18:05:00.167Z,47
2022-08-02T18:10:00.185Z,47
2022-08-02T18:15:00.176Z,49.2
2022-08-02T18:20:06.069Z,49.6
2022-08-02T18:25:00.180Z,51.2
2022-08-02T18:30:04.355Z,53.7
2022-08-02T18:35:00.167Z,55.3
2022-08-02T18:40:00.171Z,56.2
2022-08-02T18:45:00.165Z,57.5
2022-08-02T18:50:00.269Z,58.1
2022-08-02T18:55:00.196Z,58.1
2022-08-02T19:00:00.181Z,60
2022-08-02T19:05:00.172Z,59.9
2022-08-02T19:10:00.197Z,61.5
2022-08-02T19:15:00.160Z,62.5
2022-08-02T19:20:00.278Z,63.1
2022-08-02T19:25:01.626Z,64.3
2022-08-02T19:30:00.174Z,64.9
2022-08-02T19:35:00.187Z,65.8
2022-08-02T19:40:00.165Z,66.2
2022-08-02T19:45:00.164Z,68
2022-08-02T19:50:00.261Z,68.7
2022-08-02T19:56:00.224Z,69.3
2022-08-02T20:00:00.214Z,69.9
2022-08-02T20:05:00.177Z,70.5
2022-08-02T20:10:00.179Z,70.5
2022-08-02T20:15:00.166Z,71.8
2022-08-02T20:20:00.205Z,71.8
2022-08-02T20:25:00.165Z,72.4
2022-08-02T20:30:00.199Z,73
2022-08-02T20:35:00.171Z,73
2022-08-02T20:40:00.180Z,73
2022-08-02T20:45:00.162Z,73.3
2022-08-02T20:50:00.236Z,74.2
2022-08-02T20:55:00.269Z,74.5
2022-08-02T21:00:00.187Z,74.8
2022-08-02T21:05:00.171Z,75.5
2022-08-02T21:10:00.173Z,74.8
2022-08-02T21:15:00.171Z,73.9
2022-08-02T21:20:00.170Z,73.9
2022-08-02T21:25:00.173Z,74.5
2022-08-02T21:30:00.182Z,75.4
2022-08-02T21:35:00.161Z,75.4
2022-08-02T21:40:00.212Z,76
2022-08-02T21:45:00.170Z,76.3
2022-08-02T21:50:10.148Z,76.6
2022-08-02T21:55:00.180Z,77.3
2022-08-02T22:00:00.186Z,77
2022-08-02T22:05:02.711Z,77
2022-08-02T22:10:00.181Z,76.6
2022-08-02T22:15:00.182Z,76.3
2022-08-02T22:20:00.198Z,76.3
2022-08-02T22:25:00.162Z,76.9
2022-08-02T22:30:00.167Z,77.3
2022-08-02T22:35:00.176Z,77.2
2022-08-02T22:40:09.378Z,77.6
2022-08-02T22:45:00.192Z,78.2
2022-08-02T22:50:00.310Z,78.1
2022-08-02T22:55:00.180Z,78.1
2022-08-02T23:00:00.399Z,77.5
2022-08-02T23:05:00.189Z,77.8
2022-08-02T23:10:00.169Z,77.5
2022-08-02T23:15:00.172Z,77.2
2022-08-02T23:20:00.184Z,77.8
2022-08-02T23:25:00.199Z,77.8
2022-08-02T23:30:00.204Z,77.8
2022-08-02T23:35:00.164Z,77.8
2022-08-02T23:40:00.193Z,77.8
2022-08-02T23:45:00.171Z,78.1
2022-08-02T23:50:00.166Z,77.8
2022-08-02T23:55:00.169Z,77.8
